Rockville, MO

1:41 PM CST on December 18, 2014 (GMT -0600)
Clinton Memorial | Change Station
CLOSE
Current Station
Airport
Location: Clinton,
Elevation: 823 ft
Nearby Weather Stations

Elev 823 ft 38.36 °N, 93.68 °W | Updated 6 minutes ago

Overcast
Overcast
36 °F
Feels Like 33 °F
N
4
Wind Variable Wind from East

Today
High -- | Low -- °F
--% Chance of Precip.
Yesterday
High -- | Low -- °F
Precip. -- in
7:27 AM 4:59 PM
Waning Crescent, 12% visible
Pressure 30.19 in
Visibility 6.0 miles
Clouds Overcast 600 ft
Windchill 33 °F
Dew Point 34 °F
Humidity 93%
Rainfall 1.54 in
Snow Depth Not available.
UV 1 out of 12
Pollen .60 out of 12
Air Quality Not available.
Flu Activity Not available.
METAR KGLY 181935Z AUTO 09003KT 6SM UP OVC006 02/01 A3019 RMK AO2

More Conditions Fewer Conditions

Pressure 30.19 in
Visibility 6.0 miles
Clouds Overcast 600 ft
Windchill 33 °F
Dew Point 34 °F
Humidity 93%
Rainfall 1.54 in
Snow Depth Not available.
UV 1 out of 12
Pollen .60 out of 12
Air Quality Not available.
Flu Activity Not available.
METAR KGLY 181935Z AUTO 09003KT 6SM UP OVC006 02/01 A3019 RMK AO2

More Conditions Fewer Conditions

10-Day Weather Forecast

Almanac

Astronomy

Dec. 18, 2014 Rise Set
Actual Time
Civil Twilight
Nautical Twilight
Astronomical Twilight
Moon
Length of Visible Light
Length of Day
Tomorrow will be .
, % of the Moon is Illuminated

Today's Extremes

State Highs State Lows

Community

WunderPhotos

Upload Photos

1,778,985 photos uploaded!

WunderBlogs® & News

Nearby

Air Quality

  Air Quality AQ Index Pollutant
Not available.

Snow Depth

Station Depth Elevation

Earthquake Activity

City Distance Mag. Time & Date
Minimum magnitude displayed is 2.5.

Coastal Water Temperatures

Place Temperature

Nearby Weather Stations